Time;durP1;ratioP1;P1;durP2;ratioP2;P2;SDS_P1;SDS_P2;PMS_P1;PMS_P2;Temp;Humidity;BMP_temperature;BMP_pressure;BME280_temperature;BME280_humidity;BME280_pressure;Samples;Min_cycle;Max_cycle;Signal;HPM_P1;HPM_P2
2022/07/29 00:01:48;;;;;;;9.80;3.00;;;16.30;99.90;;;;;;5010373;28;20179;-57
2022/07/29 00:04:14;;;;;;;10.93;2.38;;;16.20;99.90;;;;;;5012144;28;20174;-58
2022/07/29 00:06:40;;;;;;;6.57;2.40;;;16.20;99.90;;;;;;5012164;28;20558;-57
2022/07/29 00:09:06;;;;;;;11.73;2.63;;;16.10;99.90;;;;;;5011540;28;20700;-57
2022/07/29 00:11:32;;;;;;;6.22;2.00;;;16.10;99.90;;;;;;5011808;28;20186;-55
2022/07/29 00:13:58;;;;;;;7.63;2.13;;;16.10;99.90;;;;;;5011876;28;20183;-57
2022/07/29 00:16:24;;;;;;;13.90;2.42;;;16.00;99.90;;;;;;5011595;28;20237;-58
2022/07/29 00:18:50;;;;;;;6.50;2.10;;;16.00;99.90;;;;;;5011859;28;20178;-57
2022/07/29 00:21:15;;;;;;;8.52;2.40;;;15.90;99.90;;;;;;5011869;28;20669;-57
2022/07/29 00:23:41;;;;;;;10.20;2.20;;;16.00;99.90;;;;;;5011961;28;20626;-57
2022/07/29 00:26:07;;;;;;;10.57;2.40;;;16.00;99.90;;;;;;5011342;28;20178;-57
2022/07/29 00:28:33;;;;;;;6.65;2.50;;;15.90;99.90;;;;;;5011693;28;20175;-64
2022/07/29 00:30:59;;;;;;;7.00;2.58;;;15.90;99.90;;;;;;5011485;28;20229;-58
2022/07/29 00:33:25;;;;;;;7.68;2.80;;;15.90;99.90;;;;;;5011614;28;20666;-57
2022/07/29 00:35:50;;;;;;;9.88;2.30;;;15.90;99.90;;;;;;5011079;28;20254;-57
2022/07/29 00:38:18;;;;;;;14.75;2.70;;;15.90;99.90;;;;;;5011838;28;20174;-57
2022/07/29 00:40:44;;;;;;;13.07;2.65;;;15.90;99.90;;;;;;5011868;28;20313;-57
2022/07/29 00:43:11;;;;;;;8.55;2.45;;;15.80;99.90;;;;;;5011613;28;20171;-56
2022/07/29 00:45:37;;;;;;;22.90;3.00;;;15.90;99.90;;;;;;5011404;28;20221;-57
2022/07/29 00:48:04;;;;;;;5.15;2.38;;;15.90;99.90;;;;;;5011763;28;20183;-57
2022/07/29 00:50:31;;;;;;;6.07;2.30;;;15.80;99.90;;;;;;5011505;28;20183;-57
2022/07/29 00:52:58;;;;;;;8.35;2.80;;;15.80;99.90;;;;;;5011473;28;20217;-57
2022/07/29 00:55:25;;;;;;;8.30;2.63;;;15.80;99.90;;;;;;5011462;28;20174;-57
2022/07/29 00:57:51;;;;;;;9.80;2.67;;;15.70;99.90;;;;;;5011715;28;20214;-57
2022/07/29 01:00:22;;;;;;;7.20;2.50;;;15.70;99.90;;;;;;5011510;28;20171;-57
2022/07/29 01:02:48;;;;;;;7.10;2.45;;;15.70;99.90;;;;;;5011617;28;20213;-57
2022/07/29 01:05:17;;;;;;;4.90;2.53;;;15.70;99.90;;;;;;5011449;28;20162;-57
2022/07/29 01:07:43;;;;;;;9.00;2.90;;;15.70;99.90;;;;;;5011138;28;20187;-57
2022/07/29 01:10:11;;;;;;;12.52;2.45;;;15.70;99.90;;;;;;5011289;28;20182;-60
2022/07/29 01:12:38;;;;;;;7.30;2.72;;;15.70;99.90;;;;;;5011287;28;20174;-57
2022/07/29 01:15:07;;;;;;;13.32;2.90;;;15.70;99.90;;;;;;5011150;28;20264;-57
2022/07/29 01:17:57;;;;;;;15.20;2.78;;;15.70;99.90;;;;;;5011245;28;20214;-57
2022/07/29 01:20:37;;;;;;;6.60;2.50;;;15.70;99.90;;;;;;5011081;28;20222;-57
2022/07/29 01:23:09;;;;;;;7.30;2.83;;;15.80;99.90;;;;;;5011115;28;20185;-57
2022/07/29 01:26:07;;;;;;;11.63;4.10;;;15.80;99.90;;;;;;5011119;28;20221;-57
2022/07/29 01:28:57;;;;;;;13.63;2.85;;;15.70;99.90;;;;;;5011265;28;20596;-57
2022/07/29 01:31:33;;;;;;;9.27;4.10;;;15.80;99.90;;;;;;5011032;28;20277;-56
2022/07/29 01:34:03;;;;;;;11.48;3.40;;;15.80;99.90;;;;;;5010808;28;20174;-56
2022/07/29 01:36:46;;;;;;;7.75;3.33;;;15.70;99.90;;;;;;5010993;28;20198;-56
2022/07/29 01:39:31;;;;;;;9.52;2.90;;;15.70;99.90;;;;;;5010734;28;20178;-57
2022/07/29 01:42:26;;;;;;;10.05;3.13;;;15.60;99.90;;;;;;5011109;28;20173;-56
2022/07/29 01:45:16;;;;;;;7.93;3.38;;;15.60;99.90;;;;;;5010668;28;20232;-56
2022/07/29 01:48:10;;;;;;;14.00;2.95;;;15.50;99.90;;;;;;4998692;28;20195;-56
2022/07/29 01:50:44;;;;;;;14.23;3.25;;;15.50;99.90;;;;;;5010979;28;20542;-58
2022/07/29 01:53:12;;;;;;;10.27;2.97;;;15.40;99.90;;;;;;5010955;28;20178;-56
2022/07/29 01:55:44;;;;;;;9.32;3.10;;;15.40;99.90;;;;;;5010822;28;20178;-56
2022/07/29 01:58:12;;;;;;;10.63;2.72;;;15.30;99.90;;;;;;5010782;28;20253;-56
2022/07/29 02:00:40;;;;;;;11.85;3.10;;;15.20;99.90;;;;;;5010906;28;20174;-57
2022/07/29 02:03:10;;;;;;;9.95;2.67;;;15.20;99.90;;;;;;5010953;28;20242;-56
2022/07/29 02:05:38;;;;;;;11.90;3.38;;;15.20;99.90;;;;;;5010839;28;20166;-56
2022/07/29 02:08:06;;;;;;;8.40;3.17;;;15.20;99.90;;;;;;5010282;28;20672;-56
2022/07/29 02:10:34;;;;;;;9.00;3.30;;;15.10;99.90;;;;;;5010723;28;20186;-56
2022/07/29 02:13:01;;;;;;;12.32;3.28;;;15.20;99.90;;;;;;5010677;28;20175;-57
2022/07/29 02:15:30;;;;;;;9.07;3.42;;;15.20;99.90;;;;;;5010597;28;20302;-57
2022/07/29 02:18:03;;;;;;;17.15;3.38;;;15.20;99.90;;;;;;4996794;28;20215;-57
2022/07/29 02:20:30;;;;;;;18.10;3.75;;;15.20;99.90;;;;;;5010450;28;20346;-57
2022/07/29 02:22:58;;;;;;;12.30;4.03;;;15.20;99.90;;;;;;5010379;28;20186;-57
2022/07/29 02:25:25;;;;;;;8.85;3.75;;;15.20;99.90;;;;;;5014008;28;20249;-56
2022/07/29 02:27:52;;;;;;;12.70;3.78;;;15.20;99.90;;;;;;5014052;28;20180;-57
2022/07/29 02:30:19;;;;;;;12.43;3.65;;;15.20;99.90;;;;;;5013831;28;20174;-57
2022/07/29 02:32:48;;;;;;;10.95;3.88;;;15.30;99.90;;;;;;5013913;28;20163;-57
2022/07/29 02:35:15;;;;;;;9.13;3.70;;;15.30;99.90;;;;;;5013552;28;20233;-57
2022/07/29 02:37:44;;;;;;;6.35;3.38;;;15.20;99.90;;;;;;5013815;28;20299;-57
2022/07/29 02:40:15;;;;;;;8.82;4.10;;;15.10;99.90;;;;;;5014054;28;20190;-57
2022/07/29 02:42:43;;;;;;;10.80;3.78;;;15.00;99.90;;;;;;5014196;28;20183;-56
2022/07/29 02:45:10;;;;;;;5.43;3.20;;;15.00;99.90;;;;;;5013649;28;20221;-57
2022/07/29 02:47:46;;;;;;;10.25;3.58;;;15.00;99.90;;;;;;5013716;28;20178;-57
2022/07/29 02:50:28;;;;;;;8.80;3.30;;;14.90;99.90;;;;;;5013605;28;20600;-57
2022/07/29 02:52:59;;;;;;;6.45;3.38;;;14.80;99.90;;;;;;5013659;28;20197;-57
2022/07/29 02:55:29;;;;;;;9.02;3.50;;;14.70;99.90;;;;;;5013732;28;20221;-57
2022/07/29 02:58:18;;;;;;;8.65;3.40;;;14.70;99.90;;;;;;5013301;28;20308;-57
2022/07/29 03:00:47;;;;;;;13.52;3.83;;;14.70;99.90;;;;;;5013463;28;20221;-57
2022/07/29 03:03:16;;;;;;;6.43;2.92;;;14.70;99.90;;;;;;5013743;28;20200;-57
2022/07/29 03:05:41;;;;;;;10.98;3.22;;;14.70;99.90;;;;;;4995563;28;20210;-57
2022/07/29 03:08:10;;;;;;;6.85;3.67;;;14.60;99.90;;;;;;5013176;28;20253;-57
2022/07/29 03:10:37;;;;;;;5.93;3.38;;;14.60;99.90;;;;;;5013364;28;20250;-57
2022/07/29 03:13:04;;;;;;;10.07;3.80;;;14.60;99.90;;;;;;5013088;28;20225;-57
2022/07/29 03:15:31;;;;;;;12.00;3.42;;;14.60;99.90;;;;;;5013202;28;20174;-57
2022/07/29 03:17:59;;;;;;;12.55;3.63;;;14.60;99.90;;;;;;5013099;28;20585;-57
2022/07/29 03:20:25;;;;;;;6.85;3.42;;;14.60;99.90;;;;;;5012909;28;20226;-57
2022/07/29 03:22:51;;;;;;;6.72;3.42;;;14.60;99.90;;;;;;5013154;28;20171;-57
2022/07/29 03:25:19;;;;;;;10.02;3.80;;;14.60;99.90;;;;;;5013062;28;20237;-57
2022/07/29 03:27:45;;;;;;;8.60;3.40;;;14.50;99.90;;;;;;5012781;28;20166;-57
2022/07/29 03:30:12;;;;;;;7.28;3.90;;;14.50;99.90;;;;;;5012855;28;20669;-57
2022/07/29 03:32:38;;;;;;;9.48;4.03;;;14.50;99.90;;;;;;5012990;28;20171;-57
2022/07/29 03:35:05;;;;;;;7.88;3.75;;;14.50;99.90;;;;;;5011576;28;20179;-58
2022/07/29 03:37:31;;;;;;;11.40;4.00;;;14.50;99.90;;;;;;5012746;28;20241;-57
2022/07/29 03:39:58;;;;;;;9.25;3.88;;;14.50;99.90;;;;;;5012704;28;20519;-56
2022/07/29 03:42:27;;;;;;;7.40;4.10;;;14.50;99.90;;;;;;5012608;28;20186;-57
2022/07/29 03:44:55;;;;;;;7.80;4.35;;;14.50;99.90;;;;;;5012662;28;20172;-68
2022/07/29 03:47:28;;;;;;;9.35;4.75;;;14.50;99.90;;;;;;5012726;28;20254;-57
2022/07/29 03:50:00;;;;;;;7.90;4.30;;;14.40;99.90;;;;;;5012511;28;20232;-57
2022/07/29 03:52:26;;;;;;;8.93;4.35;;;14.50;99.90;;;;;;5012559;28;20198;-57
2022/07/29 03:54:52;;;;;;;10.13;3.95;;;14.50;99.90;;;;;;5012314;28;20174;-57
2022/07/29 03:57:23;;;;;;;7.22;4.63;;;14.40;99.90;;;;;;5012504;28;20225;-57
2022/07/29 03:59:50;;;;;;;9.07;4.65;;;14.40;99.90;;;;;;5012368;28;20250;-57
2022/07/29 04:02:16;;;;;;;6.53;4.45;;;14.40;99.90;;;;;;5011995;28;20266;-58
2022/07/29 04:04:42;;;;;;;11.43;4.70;;;14.30;99.90;;;;;;5012389;28;20178;-58
2022/07/29 04:07:12;;;;;;;9.32;4.43;;;14.30;99.90;;;;;;5012347;28;20596;-58
2022/07/29 04:09:38;;;;;;;11.27;4.55;;;14.30;99.90;;;;;;5012335;28;20167;-58
2022/07/29 04:12:04;;;;;;;10.40;4.93;;;14.30;99.90;;;;;;5012196;28;20167;-58
2022/07/29 04:14:31;;;;;;;12.75;4.70;;;14.30;99.90;;;;;;5012239;28;20493;-58
2022/07/29 04:16:57;;;;;;;10.07;4.22;;;14.30;99.90;;;;;;5012121;28;20210;-58
2022/07/29 04:19:23;;;;;;;17.95;6.55;;;14.30;99.90;;;;;;5012062;28;20170;-58
2022/07/29 04:21:48;;;;;;;11.23;5.22;;;14.30;99.90;;;;;;5011797;28;20230;-57
2022/07/29 04:24:14;;;;;;;12.23;5.03;;;14.40;99.90;;;;;;5011916;28;20633;-58
2022/07/29 04:26:40;;;;;;;9.30;4.97;;;14.30;99.90;;;;;;5012025;28;20166;-58
2022/07/29 04:29:06;;;;;;;10.68;4.35;;;14.20;99.90;;;;;;5012070;28;20174;-58
2022/07/29 04:31:31;;;;;;;7.60;4.95;;;14.30;99.90;;;;;;5011914;28;20173;-58
2022/07/29 04:33:57;;;;;;;11.80;4.90;;;14.20;99.90;;;;;;5011632;28;20665;-58
2022/07/29 04:36:23;;;;;;;13.70;5.47;;;14.20;99.90;;;;;;5011610;28;20288;-58
2022/07/29 04:38:48;;;;;;;14.98;4.82;;;14.20;99.90;;;;;;5011692;28;20178;-58
2022/07/29 04:41:14;;;;;;;12.68;4.75;;;14.20;99.90;;;;;;5011680;28;20169;-58
2022/07/29 04:43:40;;;;;;;15.82;5.00;;;14.20;99.90;;;;;;5011700;28;20171;-58
2022/07/29 04:46:06;;;;;;;9.95;4.75;;;14.20;99.90;;;;;;5011168;28;20191;-57
2022/07/29 04:48:32;;;;;;;7.72;5.10;;;14.10;99.90;;;;;;5011321;28;20643;-57
2022/07/29 04:50:58;;;;;;;9.15;5.00;;;14.10;99.90;;;;;;5011275;28;20183;-58
2022/07/29 04:53:24;;;;;;;14.93;4.82;;;14.10;99.90;;;;;;5011473;28;20654;-58
2022/07/29 04:55:50;;;;;;;8.43;4.88;;;14.00;99.90;;;;;;5011377;28;20704;-58
2022/07/29 04:58:16;;;;;;;8.77;4.95;;;14.00;99.90;;;;;;5011444;28;20178;-58
2022/07/29 05:00:42;;;;;;;9.02;4.47;;;13.90;99.90;;;;;;5011525;28;20581;-58
2022/07/29 05:03:08;;;;;;;13.93;4.93;;;13.90;99.90;;;;;;4997661;28;20513;-59
2022/07/29 05:05:34;;;;;;;7.85;4.82;;;13.90;99.90;;;;;;5011002;28;20171;-58
2022/07/29 05:07:59;;;;;;;12.35;4.70;;;13.90;99.90;;;;;;5005124;28;20175;-58
2022/07/29 05:10:26;;;;;;;11.25;4.60;;;14.00;99.90;;;;;;4991711;28;20221;-61
2022/07/29 05:12:52;;;;;;;13.07;5.15;;;14.10;99.90;;;;;;4991717;28;20226;-57
2022/07/29 05:15:17;;;;;;;10.02;5.25;;;14.00;99.90;;;;;;4991541;28;20174;-58
2022/07/29 05:17:44;;;;;;;10.00;4.93;;;14.10;99.90;;;;;;4991645;28;20211;-58
2022/07/29 05:20:10;;;;;;;8.38;4.80;;;14.10;99.90;;;;;;4991289;28;20181;-57
2022/07/29 05:22:36;;;;;;;11.57;5.25;;;14.10;99.90;;;;;;4991521;28;20183;-57
2022/07/29 05:25:02;;;;;;;8.80;5.40;;;14.20;99.90;;;;;;4991591;28;20225;-57
2022/07/29 05:27:28;;;;;;;9.88;5.20;;;14.20;99.90;;;;;;5003403;28;20175;-58
2022/07/29 05:29:54;;;;;;;10.20;4.55;;;14.20;99.90;;;;;;5011032;28;20241;-57
2022/07/29 05:32:20;;;;;;;11.82;4.68;;;14.30;99.90;;;;;;5010963;28;20171;-57
2022/07/29 05:34:46;;;;;;;11.77;5.07;;;;;;;;;;5010783;28;20182;-57
2022/07/29 05:37:13;;;;;;;11.38;4.88;;;14.40;99.90;;;;;;5010877;28;20268;-57
2022/07/29 05:39:39;;;;;;;13.18;4.35;;;14.40;99.90;;;;;;5010616;28;20190;-57
2022/07/29 05:42:09;;;;;;;10.77;4.55;;;14.70;99.90;;;;;;5011028;28;20229;-57
2022/07/29 05:44:40;;;;;;;11.38;4.60;;;14.50;99.90;;;;;;5010692;28;20229;-58
2022/07/29 05:47:06;;;;;;;9.73;4.65;;;14.60;99.90;;;;;;5010992;28;20182;-58
2022/07/29 05:49:32;;;;;;;8.13;4.35;;;14.70;99.90;;;;;;5010838;28;20633;-68
2022/07/29 05:51:58;;;;;;;9.18;4.20;;;14.70;99.90;;;;;;5011125;28;20224;-65
2022/07/29 05:54:24;;;;;;;13.45;4.30;;;14.70;99.90;;;;;;5010329;28;20265;-68
2022/07/29 05:56:49;;;;;;;8.60;4.70;;;14.80;99.90;;;;;;5013962;28;20257;-66
2022/07/29 05:59:15;;;;;;;9.30;4.32;;;14.80;99.90;;;;;;5014120;28;20316;-67
2022/07/29 06:01:41;;;;;;;14.70;5.00;;;14.90;99.90;;;;;;5014448;28;20192;-67
2022/07/29 06:04:07;;;;;;;13.50;4.50;;;15.00;99.90;;;;;;5014556;28;20680;-67
2022/07/29 06:06:34;;;;;;;11.35;4.20;;;15.10;99.90;;;;;;5014617;28;20222;-67
2022/07/29 06:09:00;;;;;;;11.35;3.90;;;15.10;99.90;;;;;;5016163;28;20647;-67
2022/07/29 06:11:26;;;;;;;9.40;3.33;;;15.20;99.90;;;;;;5029211;28;20181;-68
2022/07/29 06:13:52;;;;;;;10.70;3.92;;;15.30;99.90;;;;;;5015921;28;20542;-66
2022/07/29 06:16:18;;;;;;;10.65;4.03;;;15.40;99.90;;;;;;5014249;28;20222;-66
2022/07/29 06:18:44;;;;;;;9.68;3.97;;;15.50;99.90;;;;;;5014296;28;20657;-66
2022/07/29 06:21:10;;;;;;;8.93;3.92;;;15.60;99.90;;;;;;5014076;28;20306;-66
2022/07/29 06:23:39;;;;;;;13.93;4.05;;;15.60;99.90;;;;;;5014334;28;20166;-66
2022/07/29 06:26:06;;;;;;;10.73;4.28;;;16.00;99.90;;;;;;5014092;28;20170;-66
2022/07/29 06:28:32;;;;;;;15.23;5.00;;;15.80;99.90;;;;;;5015583;28;20179;-57
2022/07/29 06:30:59;;;;;;;14.77;4.53;;;15.80;99.90;;;;;;5014009;28;20175;-65
2022/07/29 06:33:25;;;;;;;11.00;4.45;;;15.80;99.90;;;;;;5013905;28;20309;-64
2022/07/29 06:35:50;;;;;;;9.05;4.22;;;15.90;99.90;;;;;;5014637;28;20186;-63
2022/07/29 06:38:16;;;;;;;13.20;4.05;;;16.00;99.90;;;;;;5013819;28;20197;-65
2022/07/29 06:41:05;;;;;;;9.27;4.28;;;16.00;99.90;;;;;;5014006;28;20233;-65
2022/07/29 06:43:37;;;;;;;7.35;3.85;;;16.10;99.90;;;;;;5013693;28;20202;-65
2022/07/29 06:46:09;;;;;;;13.18;3.90;;;16.20;99.90;;;;;;5013947;28;20181;-65
2022/07/29 06:48:35;;;;;;;8.65;3.80;;;16.20;99.90;;;;;;5013804;28;20178;-65
2022/07/29 06:51:02;;;;;;;11.98;3.53;;;16.30;99.90;;;;;;5013814;28;20179;-66
2022/07/29 06:53:30;;;;;;;10.30;3.50;;;16.40;99.90;;;;;;5013618;28;20220;-68
2022/07/29 06:55:56;;;;;;;18.40;4.00;;;16.40;99.90;;;;;;5009587;28;20167;-66
2022/07/29 06:58:22;;;;;;;15.45;3.50;;;16.50;99.90;;;;;;5011321;28;20183;-67
2022/07/29 07:00:48;;;;;;;9.25;4.07;;;16.50;99.90;;;;;;5013564;28;20205;-68
2022/07/29 07:03:15;;;;;;;16.20;3.72;;;16.60;99.90;;;;;;5013400;28;20171;-67
2022/07/29 07:05:40;;;;;;;6.05;3.10;;;16.60;99.90;;;;;;5013353;28;20170;-67
2022/07/29 07:08:06;;;;;;;11.98;3.08;;;16.60;99.90;;;;;;5013294;28;20570;-66
2022/07/29 07:10:32;;;;;;;11.05;3.05;;;16.70;99.90;;;;;;5013052;28;20648;-66
2022/07/29 07:12:59;;;;;;;6.15;2.28;;;16.80;99.90;;;;;;5013359;28;20229;-66
2022/07/29 07:15:25;;;;;;;9.77;2.33;;;16.90;99.90;;;;;;5000105;28;20179;-67
2022/07/29 07:17:50;;;;;;;8.20;2.80;;;17.00;99.90;;;;;;5012704;28;20613;-67
2022/07/29 07:20:17;;;;;;;6.65;2.53;;;17.10;99.90;;;;;;5008963;28;20205;-68
2022/07/29 07:22:43;;;;;;;11.82;3.00;;;17.10;99.90;;;;;;5013286;28;20185;-66
2022/07/29 07:25:10;;;;;;;7.15;2.60;;;17.20;99.90;;;;;;5012413;28;20535;-74
2022/07/29 07:27:36;;;;;;;7.75;2.30;;;17.40;99.90;;;;;;5013050;28;20194;-73
2022/07/29 07:30:06;;;;;;;7.68;2.45;;;17.30;99.90;;;;;;5012754;28;20278;-76
2022/07/29 07:32:33;;;;;;;13.63;2.20;;;17.30;99.90;;;;;;5010320;28;20266;-70
2022/07/29 07:34:59;;;;;;;9.63;2.10;;;17.40;99.90;;;;;;5012935;28;20186;-73
2022/07/29 07:37:25;;;;;;;8.65;2.40;;;17.60;99.90;;;;;;5012671;28;20210;-75
2022/07/29 07:39:52;;;;;;;8.27;2.15;;;17.60;99.90;;;;;;5012662;28;20637;-74
2022/07/29 07:42:18;;;;;;;8.32;2.15;;;17.80;99.90;;;;;;5013048;28;20263;-77
2022/07/29 07:44:45;;;;;;;10.43;2.17;;;17.90;99.90;;;;;;5012026;28;20174;-75
2022/07/29 07:47:12;;;;;;;14.43;2.03;;;18.00;99.90;;;;;;5012303;28;20207;-76
2022/07/29 07:49:38;;;;;;;6.63;2.05;;;18.00;99.90;;;;;;5012722;28;20711;-76
2022/07/29 07:52:04;;;;;;;9.15;2.28;;;18.00;99.90;;;;;;5012789;28;20185;-72
2022/07/29 07:54:30;;;;;;;6.68;1.75;;;18.10;99.90;;;;;;5012598;28;20250;-72
2022/07/29 07:56:56;;;;;;;9.27;2.05;;;18.20;99.90;;;;;;5012799;28;20669;-71
2022/07/29 07:59:22;;;;;;;7.97;2.05;;;18.30;99.90;;;;;;5012186;28;20245;-71
2022/07/29 08:01:48;;;;;;;7.28;2.20;;;18.50;99.90;;;;;;5012434;28;20185;-71
2022/07/29 08:04:13;;;;;;;10.20;2.30;;;17.70;99.90;;;;;;5011925;28;20552;-71
2022/07/29 08:06:39;;;;;;;22.08;2.50;;;18.50;99.90;;;;;;5011377;28;20182;-70
2022/07/29 08:09:05;;;;;;;7.80;2.50;;;18.60;99.90;;;;;;5012188;28;20186;-70
2022/07/29 08:11:31;;;;;;;9.88;2.70;;;18.40;99.90;;;;;;5012001;28;20261;-58
2022/07/29 08:13:57;;;;;;;8.80;2.10;;;18.60;99.90;;;;;;5012131;28;20661;-57
2022/07/29 08:16:24;;;;;;;4.25;2.17;;;18.80;99.90;;;;;;5011784;28;20202;-74
2022/07/29 08:18:51;;;;;;;8.63;2.88;;;18.90;99.90;;;;;;5011559;28;20248;-73
2022/07/29 08:21:17;;;;;;;11.95;2.42;;;19.10;99.90;;;;;;5011012;28;20309;-73
2022/07/29 08:23:49;;;;;;;11.18;2.70;;;19.10;99.90;;;;;;5011585;28;20232;-74
2022/07/29 08:26:15;;;;;;;9.00;2.30;;;19.00;99.90;;;;;;5012305;28;20178;-74
2022/07/29 08:28:48;;;;;;;18.75;2.33;;;19.00;99.90;;;;;;5011928;28;20217;-73
2022/07/29 08:31:15;;;;;;;9.05;2.38;;;19.10;99.90;;;;;;4994448;28;20182;-74
2022/07/29 08:33:41;;;;;;;7.05;2.20;;;19.80;99.90;;;;;;5012226;28;20210;-73
2022/07/29 08:36:07;;;;;;;7.68;1.90;;;19.80;99.90;;;;;;5011893;28;20676;-73
2022/07/29 08:38:33;;;;;;;15.32;2.40;;;20.30;99.90;;;;;;5012302;28;20175;-73
2022/07/29 08:41:01;;;;;;;8.05;2.35;;;21.00;99.90;;;;;;5012101;28;20178;-73
2022/07/29 08:43:28;;;;;;;5.65;1.95;;;21.90;99.90;;;;;;5011865;28;20582;-73
2022/07/29 08:45:54;;;;;;;8.20;2.60;;;22.70;99.90;;;;;;5011437;28;20269;-74
2022/07/29 08:48:22;;;;;;;6.80;2.00;;;23.20;99.90;;;;;;5011841;28;20301;-74
2022/07/29 08:50:52;;;;;;;7.68;2.42;;;23.60;99.90;;;;;;5011132;28;20163;-75
2022/07/29 08:53:19;;;;;;;12.57;2.22;;;24.30;99.90;;;;;;5011772;28;20171;-74
2022/07/29 08:55:46;;;;;;;9.55;2.00;;;23.80;99.90;;;;;;5012259;28;20186;-76
2022/07/29 08:58:14;;;;;;;9.43;2.13;;;24.20;99.90;;;;;;5026494;28;20218;-77
2022/07/29 09:00:45;;;;;;;6.15;2.13;;;24.70;99.90;;;;;;5029871;28;20632;-74
2022/07/29 09:03:16;;;;;;;8.95;1.90;;;24.50;99.90;;;;;;5016370;28;20661;-75
2022/07/29 09:05:42;;;;;;;6.88;2.10;;;22.80;99.90;;;;;;5011313;28;20246;-75
2022/07/29 09:08:09;;;;;;;8.00;1.92;;;22.70;99.90;;;;;;5011433;28;20167;-75
2022/07/29 09:10:35;;;;;;;6.88;1.73;;;23.20;99.90;;;;;;5010660;28;20175;-76
2022/07/29 09:13:01;;;;;;;6.63;1.80;;;23.40;99.90;;;;;;5010840;28;20308;-76
2022/07/29 09:15:27;;;;;;;8.80;2.03;;;23.90;99.90;;;;;;5010641;28;20206;-74
2022/07/29 09:17:55;;;;;;;9.32;1.95;;;24.10;99.90;;;;;;5011072;28;20317;-73
2022/07/29 09:20:25;;;;;;;15.25;2.33;;;24.30;99.90;;;;;;5008107;28;20230;-74
2022/07/29 09:22:53;;;;;;;9.00;1.80;;;24.00;99.90;;;;;;5001402;28;20187;-74
2022/07/29 09:25:39;;;;;;;16.48;2.10;;;23.50;99.90;;;;;;5011213;28;20530;-74
2022/07/29 09:28:18;;;;;;;6.32;1.77;;;24.10;99.90;;;;;;4991948;28;20183;-74
2022/07/29 09:30:55;;;;;;;9.38;2.35;;;24.10;99.90;;;;;;4991849;28;20177;-74
2022/07/29 09:33:22;;;;;;;8.52;1.67;;;24.30;99.90;;;;;;4993639;28;20175;-74
2022/07/29 09:36:07;;;;;;;4.53;1.80;;;24.90;99.90;;;;;;4995912;28;20190;-75
2022/07/29 09:38:35;;;;;;;9.05;1.90;;;25.20;99.90;;;;;;5010776;28;20213;-62
2022/07/29 09:41:02;;;;;;;10.00;2.17;;;25.50;99.90;;;;;;4996357;28;20193;-63
2022/07/29 09:43:28;;;;;;;11.15;2.03;;;25.40;99.90;;;;;;5014784;28;20159;-63
2022/07/29 09:45:54;;;;;;;7.93;1.92;;;25.60;99.90;;;;;;5014996;28;20602;-63
2022/07/29 09:48:22;;;;;;;10.98;1.85;;;25.60;99.90;;;;;;5011265;28;20190;-64
2022/07/29 09:50:49;;;;;;;8.38;1.90;;;25.90;99.90;;;;;;4995304;28;20175;-63
2022/07/29 09:53:36;;;;;;;9.10;2.45;;;25.80;99.90;;;;;;4995291;28;20258;-63
2022/07/29 09:56:03;;;;;;;8.75;1.70;;;24.80;99.90;;;;;;4995291;28;20179;-63
2022/07/29 09:58:29;;;;;;;19.98;2.97;;;25.20;99.90;;;;;;4995115;28;20176;-63
2022/07/29 10:00:56;;;;;;;6.03;1.90;;;25.40;99.90;;;;;;4995151;28;20167;-63
2022/07/29 10:03:23;;;;;;;15.25;2.70;;;25.50;99.90;;;;;;5002120;28;20166;-63
2022/07/29 10:06:09;;;;;;;11.13;1.85;;;25.90;99.90;;;;;;5014602;28;20182;-63
2022/07/29 10:08:36;;;;;;;7.55;1.70;;;26.50;99.90;;;;;;4994745;28;20262;-63
2022/07/29 10:11:13;;;;;;;8.75;2.33;;;26.60;99.90;;;;;;4994905;28;20171;-63
2022/07/29 10:13:40;;;;;;;7.10;2.10;;;27.10;99.90;;;;;;5010669;28;20181;-63
2022/07/29 10:16:06;;;;;;;8.00;2.20;;;27.30;99.90;;;;;;5012706;28;20206;-62
2022/07/29 10:18:33;;;;;;;9.43;1.83;;;27.20;99.90;;;;;;5014565;28;20716;-63
2022/07/29 10:21:00;;;;;;;9.27;2.20;;;27.10;99.90;;;;;;5013791;28;20217;-63
2022/07/29 10:23:29;;;;;;;6.07;2.17;;;27.00;99.90;;;;;;5013664;28;20174;-63
2022/07/29 10:25:55;;;;;;;5.35;2.20;;;27.00;99.90;;;;;;5013946;28;20637;-63
2022/07/29 10:28:20;;;;;;;9.75;2.15;;;26.90;99.90;;;;;;5013915;28;20185;-63
2022/07/29 10:30:50;;;;;;;7.05;2.03;;;27.00;99.90;;;;;;5021198;28;20178;-63
2022/07/29 10:33:37;;;;;;;7.75;1.95;;;27.00;99.90;;;;;;5033863;28;20185;-64
2022/07/29 10:36:21;;;;;;;7.47;2.13;;;27.40;99.90;;;;;;5004365;28;20186;-63
2022/07/29 10:38:51;;;;;;;11.93;2.17;;;27.40;99.90;;;;;;5011822;28;20179;-63
2022/07/29 10:41:37;;;;;;;8.43;1.95;;;27.70;99.90;;;;;;5013487;28;20257;-63
2022/07/29 10:44:12;;;;;;;6.95;1.80;;;27.90;99.90;;;;;;5013360;28;20547;-63
2022/07/29 10:46:40;;;;;;;17.88;2.05;;;28.20;99.90;;;;;;5013945;28;20166;-63
2022/07/29 10:49:16;;;;;;;6.72;2.08;;;28.10;99.90;;;;;;5013663;28;20232;-63
2022/07/29 10:52:07;;;;;;;7.97;2.33;;;27.00;99.90;;;;;;5013747;28;20202;-62
2022/07/29 10:54:39;;;;;;;13.57;2.15;;;27.10;99.90;;;;;;5013736;28;20171;-63
2022/07/29 10:57:21;;;;;;;12.27;2.65;;;27.70;99.90;;;;;;5013552;28;20305;-62
2022/07/29 11:00:00;;;;;;;14.20;1.80;;;28.50;99.90;;;;;;5013443;28;20625;-63
2022/07/29 11:02:42;;;;;;;8.52;1.92;;;29.10;99.90;;;;;;5013394;28;20640;-63
2022/07/29 11:05:09;;;;;;;7.20;2.00;;;29.80;99.90;;;;;;5013503;28;20182;-63
2022/07/29 11:07:36;;;;;;;12.07;1.77;;;30.00;99.90;;;;;;5013178;28;20509;-62
2022/07/29 11:10:15;;;;;;;4.72;1.48;;;30.00;99.90;;;;;;4995588;28;20174;-62
2022/07/29 11:12:40;;;;;;;10.57;2.08;;;30.30;99.90;;;;;;5013216;28;20174;-63
2022/07/29 11:15:24;;;;;;;7.82;1.60;;;30.00;99.90;;;;;;5013266;28;20225;-63
2022/07/29 11:18:00;;;;;;;7.93;1.70;;;30.30;99.90;;;;;;5013239;28;20206;-63
2022/07/29 11:20:44;;;;;;;8.45;2.00;;;31.20;99.90;;;;;;5012894;28;20248;-63
2022/07/29 11:23:29;;;;;;;10.50;1.67;;;31.30;99.90;;;;;;5013102;28;20190;-63
2022/07/29 11:26:20;;;;;;;17.00;2.47;;;30.40;99.90;;;;;;5012280;28;20185;-63
2022/07/29 11:28:51;;;;;;;9.68;2.28;;;31.00;99.90;;;;;;5011132;28;20206;-63
2022/07/29 11:31:32;;;;;;;17.48;1.92;;;30.00;99.90;;;;;;5011963;28;20241;-64
2022/07/29 11:34:20;;;;;;;6.68;1.63;;;29.20;99.90;;;;;;5012770;28;20171;-63
2022/07/29 11:37:13;;;;;;;8.63;1.90;;;30.20;99.90;;;;;;5007809;28;20214;-64
2022/07/29 11:39:52;;;;;;;8.85;1.60;;;30.90;99.90;;;;;;5000015;28;20273;-64
2022/07/29 11:42:23;;;;;;;8.27;1.50;;;30.90;99.90;;;;;;4993093;28;20665;-63
2022/07/29 11:44:58;;;;;;;10.60;2.00;;;31.20;99.90;;;;;;5001741;28;20175;-63
2022/07/29 11:47:26;;;;;;;8.45;1.73;;;32.00;99.90;;;;;;5012689;28;20224;-63
2022/07/29 11:49:53;;;;;;;3.30;1.35;;;32.40;99.90;;;;;;5012506;28;20625;-64
2022/07/29 11:52:20;;;;;;;7.93;1.33;;;33.10;99.90;;;;;;5012136;28;20181;-64
2022/07/29 11:54:50;;;;;;;4.28;1.40;;;31.20;99.90;;;;;;5010999;28;20212;-64
2022/07/29 11:57:18;;;;;;;7.60;1.52;;;31.30;99.90;;;;;;5011723;28;20259;-63
2022/07/29 11:59:45;;;;;;;7.22;1.38;;;30.90;99.90;;;;;;5012011;28;20242;-64
2022/07/29 12:02:12;;;;;;;3.40;1.20;;;32.10;99.90;;;;;;5012349;28;20182;-62
2022/07/29 12:04:55;;;;;;;8.38;1.67;;;32.40;99.90;;;;;;5012183;28;20174;-63
2022/07/29 12:07:31;;;;;;;7.68;1.55;;;32.90;99.90;;;;;;5011670;28;20187;-63
2022/07/29 12:09:57;;;;;;;5.70;1.40;;;33.00;99.90;;;;;;5012452;28;20256;-64
2022/07/29 12:12:23;;;;;;;7.45;1.38;;;33.20;99.90;;;;;;5012266;28;20181;-64
2022/07/29 12:14:50;;;;;;;5.55;1.40;;;32.90;99.90;;;;;;5011415;28;20220;-63
2022/07/29 12:17:30;;;;;;;3.10;1.30;;;33.10;99.90;;;;;;5011583;28;20697;-64
2022/07/29 12:19:57;;;;;;;4.30;1.30;;;33.00;99.90;;;;;;5012160;28;20181;-65
2022/07/29 12:22:36;;;;;;;8.38;1.42;;;33.30;99.90;;;;;;5011792;28;20689;-64
2022/07/29 12:25:15;;;;;;;18.63;1.33;;;33.60;99.90;;;;;;5010805;28;20173;-63
2022/07/29 12:27:43;;;;;;;4.13;1.30;;;33.70;99.90;;;;;;5012082;28;20174;-65
2022/07/29 12:30:11;;;;;;;3.88;1.38;;;33.70;99.90;;;;;;5012033;28;20264;-65
2022/07/29 12:32:38;;;;;;;4.85;1.50;;;33.50;99.90;;;;;;5012075;28;20187;-64
2022/07/29 12:35:25;;;;;;;6.35;1.40;;;33.20;99.90;;;;;;5011202;28;20162;-64
2022/07/29 12:37:52;;;;;;;7.28;1.60;;;33.10;99.90;;;;;;5011735;28;20224;-65
2022/07/29 12:40:18;;;;;;;6.00;1.25;;;33.20;99.90;;;;;;5011667;28;20250;-65
2022/07/29 12:43:10;;;;;;;4.97;1.48;;;33.00;99.90;;;;;;5011408;28;20182;-65
2022/07/29 12:45:38;;;;;;;3.70;1.15;;;31.40;99.90;;;;;;5011717;28;20182;-64
2022/07/29 12:48:08;;;;;;;5.28;1.38;;;32.50;99.90;;;;;;5011013;28;20174;-64
2022/07/29 12:50:50;;;;;;;7.20;1.45;;;32.70;99.90;;;;;;5006104;28;20189;-64
2022/07/29 12:53:16;;;;;;;3.40;1.40;;;33.10;99.90;;;;;;5011419;28;20173;-64
2022/07/29 12:55:51;;;;;;;6.45;1.42;;;33.50;99.90;;;;;;5010927;28;20711;-66